Latest Coastal Weather Observations for Mallacoota

IDV60701

Issued at 9:05 pm EST Thursday 24 April 2014 (issued every 10 minutes, with the page automatically refreshed every 10 minutes)

About coastal observations | Map of coastal stations | Coastal observations for VIC | Marine services | Other Formats
Station Details ID: 084084 Name: MALLACOOTA Lat: -37.60 Lon: 149.73 Height: 22.0 m
Data from the previous 72 hours. | See also: Recent months at Mallacoota
Date/Time
EST
Temp

°C
Wind Pressure Rain
since 9am
mm
Weather Cloud Vis
km
Sea
Height
m
Swell
Dir
 
Speed
knots
Gust
knots
hPa Trend Height
m
Period
s
Dir
24/09:00pm 11.9 W 4 7 1020.4 - 0.0 - - - - - - -
24/08:30pm 12.4 W 5 8 1020.3 - 0.0 - - - - - - -
24/08:00pm 12.7 WSW 5 8 1020.0 - 0.0 - - - - - - -
24/07:30pm 13.5 WSW 6 10 1019.6 - 0.0 - - - - - - -
24/07:00pm 13.9 WSW 6 10 1019.2 - 0.0 - - - - - - -
24/06:30pm 14.3 WSW 8 15 1018.7 - 0.0 - - - - - - -
24/06:00pm 14.6 WSW 8 15 1017.9 - 0.0 - - - - - - -
24/05:30pm 15.0 WSW 10 16 1017.3 - 0.0 - - - - - - -
24/05:00pm 15.0 WSW 8 12 1016.7 - 0.0 - - - - - - -
24/04:30pm 14.9 WSW 7 10 1016.2 - 0.0 - - - - - - -
24/04:00pm 14.9 WSW 7 13 1015.7 - 0.0 - - - - - - -
24/03:30pm 14.9 SW 12 18 1015.4 - 0.0 - - - - - - -
24/03:03pm 15.9 SW 15 28 1014.7 - 0.0 - - - - - - -
24/03:00pm 16.1 SW 14 23 1014.4 - 0.0 - - - - - - -
24/02:30pm 17.1 SW 16 30 1013.6 - 0.0 - - - - - - -
24/02:08pm 18.0 SW 15 25 1013.2 - 0.0 - - - - - - -
24/02:00pm 18.0 SW 14 27 1013.2 - 0.0 - - - - - - -
24/01:30pm 18.0 WSW 15 27 1012.7 - 0.0 - - - - - - -
24/01:00pm 19.3 SW 15 25 1011.8 - 0.0 - - - - - - -
24/12:53pm 19.9 SW 15 26 1011.6 - 0.0 - - - - - - -
24/12:30pm 20.4 SW 9 16 1011.4 - 0.0 - - - - - - -
24/12:00pm 21.6 SW 10 15 1011.2 - 0.0 - - - - - - -
24/11:30am 21.5 WSW 8 13 1011.5 - 0.0 - - - - - - -
24/11:00am 20.9 WSW 7 11 1011.5 - 0.0 - - - - - - -
24/10:30am 20.0 WSW 5 10 1011.5 - 0.0 - - - - - - -
24/10:00am 19.1 W 6 9 1011.5 - 0.0 - - - - - - -
24/09:30am 17.9 WNW 4 7 1011.4 - 0.0 - - - - - - -
24/09:00am 16.4 WNW 5 7 1011.4 - 0.0 - - - - - - -
24/08:30am 13.7 WNW 5 8 1011.5 - 0.0 - - - - - - -
24/08:00am 12.2 NW 4 5 1011.3 - 0.0 - - - - - - -
24/07:30am 11.9 WNW 5 7 1010.7 - 0.0 - - - - - - -
24/07:00am 11.7 W 6 8 1010.2 - 0.0 - - - - - - -
24/06:30am 11.5 WNW 6 8 1009.9 - 0.0 - - - - - - -
24/06:00am 11.8 NW 6 8 1009.7 - 0.0 - - - - - - -
24/05:30am 12.3 WNW 6 8 1009.7 - 0.0 - - - - - - -
24/05:00am 12.1 WNW 6 8 1009.7 - 0.0 - - - - - - -
24/04:30am 12.1 WNW 6 7 1009.9 - 0.0 - - - - - - -
24/04:00am 12.2 NW 6 7 1009.9 - 0.0 - - - - - - -
24/03:30am 12.3 WNW 6 7 1010.0 - 0.0 - - - - - - -
24/03:00am 11.8 NW 4 5 1010.2 - 0.0 - - - - - - -
24/02:30am 11.4 CALM 0 0 1010.5 - 0.0 - - - - - - -
24/02:00am 11.8 N 3 4 1010.9 - 0.0 - - - - - - -
24/01:30am 12.7 NW 4 5 1011.2 - 0.0 - - - - - - -
24/01:00am 12.9 NW 3 5 1011.5 - 0.0 - - - - - - -
24/12:30am 13.8 WNW 5 6 1011.6 - 0.0 - - - - - - -
24/12:00am 13.9 NW 5 6 1011.8 - 0.0 - - - - - - -
 
Date/Time
EST
Temp

°C
Wind Pressure Rain
since 9am
mm
Weather Cloud Vis
km
Sea
Height
m
Swell
Dir
 
Speed
knots
Gust
knots
hPa Trend Height
m
Period
s
Dir
23/11:30pm 14.2 NW 5 6 1012.0 - 0.0 - - - - - - -
23/11:00pm 14.2 NW 4 5 1012.3 - 0.0 - - - - - - -
23/10:30pm 14.1 NNW 3 4 1012.6 - 0.0 - - - - - - -
23/10:00pm 14.2 N 3 4 1012.6 - 0.0 - - - - - - -
23/09:30pm 15.2 NW 1 3 1012.6 - 0.0 - - - - - - -
23/09:00pm 15.9 WNW 4 6 1012.7 - 0.0 - - - - - - -
23/08:30pm 15.9 WNW 4 6 1012.9 - 0.0 - - - - - - -
23/08:00pm 16.4 WNW 4 5 1012.9 - 0.0 - - - - - - -
23/07:30pm 16.5 W 4 5 1012.8 - 0.0 - - - - - - -
23/07:00pm 16.6 WSW 4 6 1012.9 - 0.0 - - - - - - -
23/06:30pm 16.8 W 4 4 1012.7 - 0.0 - - - - - - -
23/06:00pm 17.1 SW 4 7 1012.5 - 0.0 - - - - - - -
23/05:30pm 17.7 SW 5 7 1012.7 - 0.0 - - - - - - -
23/05:00pm 18.1 SW 4 5 1012.4 - 0.0 - - - - - - -
23/04:30pm 18.7 S 4 6 1012.2 - 0.0 - - - - - - -
23/04:00pm 19.7 SE 3 4 1012.4 - 0.0 - - - - - - -
23/03:30pm 20.1 SSE 3 5 1012.4 - 0.0 - - - - - - -
23/03:00pm 19.7 SSE 4 8 1012.4 - 0.0 - - - - - - -
23/02:30pm 19.9 SE 4 6 1012.6 - 0.0 - - - - - - -
23/02:00pm 20.2 SSE 4 7 1012.5 - 0.0 - - - - - - -
23/01:30pm 19.3 SE 5 7 1012.8 - 0.0 - - - - - - -
23/01:00pm 19.1 SE 5 7 1013.3 - 0.0 - - - - - - -
23/12:30pm 19.2 ESE 5 8 1013.9 - 0.0 - - - - - - -
23/12:00pm 19.3 E 7 9 1014.3 - 0.0 - - - - - - -
23/11:30am 18.9 E 6 8 1014.8 - 0.0 - - - - - - -
23/11:00am 18.6 E 5 6 1015.3 - 0.0 - - - - - - -
23/10:30am 19.2 ENE 4 5 1015.6 - 0.0 - - - - - - -
23/10:00am 17.7 NE 3 4 1015.8 - 0.0 - - - - - - -
23/09:30am 17.0 NNW 4 5 1016.3 - 0.0 - - - - - - -
23/09:00am 15.9 NNW 5 6 1016.5 - 0.0 - - - - - - -
23/08:30am 15.0 NW 4 5 1017.0 - 0.0 - - - - - - -
23/08:00am 14.8 NW 5 6 1016.9 - 0.0 - - - - - - -
23/07:30am 14.5 NW 5 6 1016.7 - 0.0 - - - - - - -
23/07:00am 14.3 WNW 5 6 1016.4 - 0.0 - - - - - - -
23/06:30am 14.1 NW 5 6 1016.2 - 0.0 - - - - - - -
23/06:00am 14.3 NW 5 6 1016.2 - 0.0 - - - - - - -
23/05:30am 14.4 NW 4 6 1016.4 - 0.0 - - - - - - -
23/05:00am 14.5 WNW 4 5 1016.5 - 0.0 - - - - - - -
23/04:30am 14.8 W 4 6 1016.7 - 0.0 - - - - - - -
23/04:00am 14.8 WNW 4 6 1016.6 - 0.0 - - - - - - -
23/03:30am 14.9 WNW 4 6 1016.6 - 0.0 - - - - - - -
23/03:00am 14.7 WNW 4 5 1016.5 - 0.0 - - - - - - -
23/02:30am 14.9 NW 5 6 1016.6 - 0.0 - - - - - - -
23/02:00am 15.2 WNW 4 7 1017.0 - 0.0 - - - - - - -
23/01:30am 15.0 WNW 5 8 1017.2 - 0.0 - - - - - - -
23/01:00am 15.0 WNW 5 6 1017.4 - 0.0 - - - - - - -
23/12:30am 15.0 WNW 5 6 1017.3 - 0.0 - - - - - - -
23/12:00am 14.9 NW 4 5 1017.1 - 0.0 - - - - - - -
 
Date/Time
EST
Temp

°C
Wind Pressure Rain
since 9am
mm
Weather Cloud Vis
km
Sea
Height
m
Swell
Dir
 
Speed
knots
Gust
knots
hPa Trend Height
m
Period
s
Dir
22/11:30pm 15.2 W 4 6 1017.1 - 0.0 - - - - - - -
22/11:00pm 15.2 W 5 7 1017.2 - 0.0 - - - - - - -
22/10:30pm 14.6 WNW 4 6 1017.1 - 0.0 - - - - - - -
22/10:00pm 14.3 W 4 7 1017.0 - 0.0 - - - - - - -
22/09:30pm 14.0 W 5 6 1016.8 - 0.0 - - - - - - -
22/09:00pm 14.2 W 6 8 1016.8 - 0.0 - - - - - - -
22/08:30pm 14.2 W 3 5 1016.1 - 0.0 - - - - - - -
22/08:00pm 14.3 WSW 5 7 1016.0 - 0.0 - - - - - - -
22/07:30pm 14.5 SW 4 5 1015.7 - 0.0 - - - - - - -
22/07:00pm 15.3 NW 4 4 1015.0 - 0.0 - - - - - - -
22/06:30pm 15.2 NNW 5 6 1014.7 - 0.0 - - - - - - -
22/06:00pm 15.6 NW 3 5 1014.2 - 0.0 - - - - - - -
22/05:30pm 16.6 W 2 4 1014.1 - 0.0 - - - - - - -
22/05:00pm 17.6 CALM 0 0 1013.9 - 0.0 - - - - - - -
22/04:30pm 18.9 CALM 0 0 1014.0 - 0.0 - - - - - - -
22/04:00pm 19.1 SSW 2 4 1014.0 - 0.0 - - - - - - -
22/03:30pm 19.1 S 4 7 1014.0 - 0.0 - - - - - - -
22/03:00pm 19.8 SSW 6 9 1013.9 - 0.0 - - - - - - -
22/02:30pm 20.2 S 8 12 1014.0 - 0.0 - - - - - - -
22/02:00pm 20.5 SSW 7 11 1014.1 - 0.0 - - - - - - -
22/01:30pm 20.9 SSW 5 8 1014.1 - 0.0 - - - - - - -
22/01:00pm 20.6 SSW 8 12 1014.4 - 0.0 - - - - - - -
22/12:30pm 20.3 S 7 13 1014.6 - 0.0 - - - - - - -
22/12:00pm 20.5 S 5 8 1014.8 - 0.0 - - - - - - -
22/11:30am 19.0 SW 4 6 1015.3 - 0.0 - - - - - - -
22/11:00am 17.9 SW 3 4 1015.6 - 0.0 - - - - - - -
22/10:30am 17.6 WSW 1 4 1015.3 - 0.0 - - - - - - -
22/10:00am 17.2 SSW 2 6 1014.5 - 0.0 - - - - - - -
22/09:30am 17.4 NW 4 7 1014.6 - 0.0 - - - - - - -
22/09:00am 16.6 NNW 6 8 1014.5 - 0.0 - - - - - - -
22/08:30am 16.6 NW 5 7 1014.8 - 0.0 - - - - - - -
22/08:00am 16.5 N 6 8 1014.5 - 0.0 - - - - - - -
22/07:30am 16.0 NNW 7 9 1014.3 - 0.0 - - - - - - -
22/07:00am 16.0 NNW 8 12 1014.0 - 0.0 - - - - - - -
22/06:30am 15.9 NNW 8 11 1013.9 - 0.0 - - - - - - -
22/06:00am 15.4 NW 8 10 1013.6 - 0.0 - - - - - - -
22/05:30am 15.3 NW 9 11 1013.8 - 0.0 - - - - - - -
22/05:00am 15.3 NNW 10 14 1014.0 - 0.0 - - - - - - -
22/04:30am 15.4 NW 9 11 1014.0 - 0.0 - - - - - - -
22/04:00am 15.6 NNW 9 12 1014.1 - 0.0 - - - - - - -
22/03:30am 15.3 NNW 8 13 1014.2 - 0.0 - - - - - - -
22/03:00am 15.0 NNW 10 13 1014.1 - 0.0 - - - - - - -
22/02:30am 15.0 NNW 9 13 1014.6 - 0.0 - - - - - - -
22/02:00am 15.0 NNW 8 11 1014.9 - 0.0 - - - - - - -
22/01:30am 15.0 NNW 7 10 1015.1 - 0.0 - - - - - - -
22/01:00am 14.9 NNW 7 10 1015.3 - 0.0 - - - - - - -
22/12:30am 15.0 NNW 7 10 1015.5 - 0.0 - - - - - - -
22/12:00am 15.3 NNW 8 11 1015.5 - 0.0 - - - - - - -
 
Date/Time
EST
Temp

°C
Wind Pressure Rain
since 9am
mm
Weather Cloud Vis
km
Sea
Height
m
Swell
Dir
 
Speed
knots
Gust
knots
hPa Trend Height
m
Period
s
Dir
21/11:30pm 15.5 N 9 15 1015.7 - 0.0 - - - - - - -
21/11:00pm 15.6 NNW 8 12 1016.0 - 0.0 - - - - - - -
21/10:30pm 15.5 N 8 12 1016.4 - 0.0 - - - - - - -
21/10:00pm 15.4 NNW 7 11 1016.8 - 0.0 - - - - - - -
21/09:30pm 15.3 NNW 7 10 1017.1 - 0.0 - - - - - - -

Other Formats:

Comma delimited format used in spreadsheet applications
http://www.bom.gov.au/fwo/IDV60701/IDV60701.94935.axf

JavaScript Object Notation format (JSON) in row-major order
http://www.bom.gov.au/fwo/IDV60701/IDV60701.94935.json